Time;durP1;ratioP1;P1;durP2;ratioP2;P2;SDS_P1;SDS_P2;PMS_P1;PMS_P2;Temp;Humidity;BMP_temperature;BMP_pressure;BME280_temperature;BME280_humidity;BME280_pressure;Samples;Min_cycle;Max_cycle;Signal;HPM_P1;HPM_P2
2021/06/02 00:00:12;;;;;;;5.82;2.75;;;;;;;11.51;63.73;100281.84;6348538;28;20047;-57
2021/06/02 00:03:18;;;;;;;6.53;3.30;;;;;;;11.41;64.17;100284.19;6348158;28;20504;-57
2021/06/02 00:06:22;;;;;;;6.80;3.40;;;;;;;11.41;64.42;100280.72;6348029;28;20055;-57
2021/06/02 00:09:24;;;;;;;4.22;2.95;;;;;;;11.39;64.86;100280.00;6347756;28;20125;-57
2021/06/02 00:12:24;;;;;;;5.47;3.35;;;;;;;11.33;64.73;100278.56;6346764;28;20486;-57
2021/06/02 00:15:25;;;;;;;4.43;3.20;;;;;;;11.36;64.80;100274.94;6346488;28;20043;-57
2021/06/02 00:18:26;;;;;;;7.13;3.38;;;;;;;11.24;65.32;100279.97;6346504;28;20474;-57
2021/06/02 00:21:28;;;;;;;4.55;3.05;;;;;;;11.23;64.61;100278.28;6347595;28;20031;-57
2021/06/02 00:24:29;;;;;;;5.68;3.60;;;;;;;11.21;64.37;100279.31;6347551;28;20096;-57
2021/06/02 00:27:30;;;;;;;5.10;3.60;;;;;;;11.18;65.17;100275.13;6346194;28;20487;-57
2021/06/02 00:30:31;;;;;;;8.40;3.92;;;;;;;11.18;64.59;100275.13;6347410;28;20481;-57
2021/06/02 00:33:31;;;;;;;7.88;3.97;;;;;;;11.12;64.74;100275.50;6347254;28;20044;-57
2021/06/02 00:36:33;;;;;;;5.80;3.88;;;;;;;11.09;64.51;100273.88;6346224;28;20127;-57
2021/06/02 00:39:35;;;;;;;7.80;3.70;;;;;;;11.06;64.91;100271.47;6347088;28;20529;-57
2021/06/02 00:42:36;;;;;;;;;;;;;;;11.04;64.59;100278.56;6329617;28;20043;-57
2021/06/02 00:45:39;;;;;;;5.97;3.60;;;;;;;11.02;65.33;100279.56;6347030;28;20297;-58
2021/06/02 00:48:42;;;;;;;7.05;4.22;;;;;;;11.02;64.67;100276.97;6346873;28;20040;-58
2021/06/02 00:51:46;;;;;;;8.55;4.40;;;;;;;10.98;65.86;100278.06;6346946;28;20039;-57
2021/06/02 00:54:47;;;;;;;6.88;4.00;;;;;;;10.94;66.41;100284.41;6329090;28;20123;-56
2021/06/02 00:57:52;;;;;;;12.10;4.10;;;;;;;10.92;65.82;100281.88;6346717;28;20114;-57
2021/06/02 01:00:53;;;;;;;6.75;3.67;;;;;;;10.83;66.02;100285.03;6345490;28;20042;-57
2021/06/02 01:03:56;;;;;;;7.68;4.22;;;;;;;10.87;66.12;100283.91;6346678;28;20494;-57
2021/06/02 01:06:57;;;;;;;10.75;4.22;;;;;;;10.80;66.79;100293.03;6346587;28;20054;-57
2021/06/02 01:10:00;;;;;;;7.18;4.15;;;;;;;10.75;66.15;100288.09;6345214;28;20047;-57
2021/06/02 01:13:00;;;;;;;9.18;4.28;;;;;;;10.75;66.99;100302.88;6346407;28;20048;-57
2021/06/02 01:16:02;;;;;;;7.03;4.10;;;;;;;10.75;67.70;100298.53;6328380;28;20039;-57
2021/06/02 01:19:03;;;;;;;5.43;3.65;;;;;;;10.74;66.61;100298.63;6345236;28;20043;-57
2021/06/02 01:22:04;;;;;;;7.32;4.00;;;;;;;10.58;66.89;100298.66;6345045;28;20046;-57
2021/06/02 01:25:12;;;;;;;7.45;4.45;;;;;;;10.60;66.71;100297.63;6328389;28;20043;-57
2021/06/02 01:28:13;;;;;;;7.53;4.60;;;;;;;10.59;67.15;100295.97;6346270;28;20512;-58
2021/06/02 01:31:26;;;;;;;6.88;3.85;;;;;;;10.63;66.99;100304.47;6346307;28;20482;-57
2021/06/02 01:35:01;;;;;;;6.18;4.10;;;;;;;10.56;67.26;100303.13;6346214;28;20040;-57
2021/06/02 01:38:09;;;;;;;4.60;3.40;;;;;;;10.59;66.41;100305.56;6344755;28;20502;-57
2021/06/02 01:41:30;;;;;;;4.82;3.42;;;;;;;10.46;67.60;100303.66;6346235;28;20058;-58
2021/06/02 01:45:10;;;;;;;5.57;3.40;;;;;;;10.48;67.47;100312.22;6345997;28;20075;-57
2021/06/02 01:48:56;;;;;;;5.70;3.72;;;;;;;10.42;67.49;100304.75;6346011;28;20112;-57
2021/06/02 01:52:35;;;;;;;8.02;3.85;;;;;;;10.48;68.11;100296.56;6343926;28;20413;-57
2021/06/02 01:55:50;;;;;;;5.55;3.67;;;;;;;10.40;67.62;100298.78;6345856;28;20391;-56
2021/06/02 01:59:13;;;;;;;10.35;3.58;;;;;;;10.38;67.98;100307.63;6345857;28;20040;-57
2021/06/02 02:02:36;;;;;;;7.53;4.10;;;;;;;10.41;67.75;100310.88;6345920;28;20139;-57
2021/06/02 02:05:58;;;;;;;5.60;3.70;;;;;;;10.31;68.39;100309.72;6345787;28;20043;-57
2021/06/02 02:09:23;;;;;;;4.88;3.30;;;;;;;10.36;68.49;100314.69;6346553;28;20405;-57
2021/06/02 02:12:36;;;;;;;6.07;3.55;;;;;;;10.36;67.14;100310.31;6350765;28;20043;-57
2021/06/02 02:16:10;;;;;;;5.43;3.65;;;;;;;10.31;68.26;100311.47;6349551;28;20058;-57
2021/06/02 02:19:13;;;;;;;6.35;3.92;;;;;;;10.33;67.92;100320.06;6350943;28;20470;-58
2021/06/02 02:22:33;;;;;;;6.80;3.65;;;;;;;10.27;69.74;100316.84;6350483;28;20087;-57
2021/06/02 02:25:56;;;;;;;6.75;3.58;;;;;;;10.25;69.55;100317.84;6350477;28;20044;-56
2021/06/02 02:29:31;;;;;;;6.82;3.40;;;;;;;10.28;69.32;100321.13;6349232;28;20116;-56
2021/06/02 02:32:49;;;;;;;5.63;3.45;;;;;;;10.25;70.12;100334.34;6350237;28;20497;-57
2021/06/02 02:36:15;;;;;;;7.53;3.30;;;;;;;10.06;71.26;100331.88;6349015;28;20502;-56
2021/06/02 02:39:35;;;;;;;5.13;3.55;;;;;;;10.01;71.37;100333.91;6349982;28;20043;-57
2021/06/02 02:42:55;;;;;;;5.18;3.45;;;;;;;10.06;72.05;100333.66;6349980;28;20036;-57
2021/06/02 02:46:08;;;;;;;5.40;3.38;;;;;;;10.00;72.23;100341.81;6350022;28;20401;-57
2021/06/02 02:49:46;;;;;;;11.63;3.65;;;;;;;9.86;73.59;100345.16;6349762;28;20036;-57
2021/06/02 02:52:54;;;;;;;12.63;4.10;;;;;;;9.95;73.23;100349.06;6349577;28;20115;-58
2021/06/02 02:56:01;;;;;;;8.52;3.63;;;;;;;9.93;74.08;100348.28;6349615;28;20058;-58
2021/06/02 02:59:10;;;;;;;12.45;3.63;;;;;;;9.91;74.71;100356.19;6349928;28;20036;-58
2021/06/02 03:02:37;;;;;;;7.32;3.90;;;;;;;9.94;73.74;100350.81;6349481;28;20386;-58
2021/06/02 03:05:48;;;;;;;7.47;3.55;;;;;;;9.89;74.90;100345.84;6325097;28;20059;-59
2021/06/02 03:09:00;;;;;;;6.18;3.83;;;;;;;9.88;75.02;100352.00;6349176;28;20528;-59
2021/06/02 03:12:26;;;;;;;4.80;3.28;;;;;;;9.93;74.81;100362.16;6349320;28;20044;-59
2021/06/02 03:15:40;;;;;;;8.27;3.67;;;;;;;9.96;75.05;100366.38;6349390;28;20135;-59
2021/06/02 03:18:59;;;;;;;4.78;3.67;;;;;;;9.91;75.41;100363.19;6349117;28;20043;-59
2021/06/02 03:22:07;;;;;;;7.50;3.40;;;;;;;10.01;74.58;100366.97;6347696;28;20494;-59
2021/06/02 03:25:24;;;;;;;8.60;3.70;;;;;;;10.07;74.48;100364.03;6347670;28;20468;-59
2021/06/02 03:29:00;;;;;;;4.82;3.65;;;;;;;10.02;75.67;100371.25;6348993;28;20088;-59
2021/06/02 03:32:14;;;;;;;5.55;3.75;;;;;;;10.10;75.22;100376.91;6343223;28;20117;-58
2021/06/02 03:35:20;;;;;;;15.25;5.55;;;;;;;10.17;75.33;100374.78;6348722;28;20135;-59
2021/06/02 03:38:57;;;;;;;16.42;7.57;;;;;;;10.13;73.93;100381.97;6348748;28;20036;-59
2021/06/02 03:42:01;;;;;;;5.82;4.22;;;;;;;10.11;73.45;100382.94;6348662;28;20040;-59
2021/06/02 03:45:13;;;;;;;6.07;3.78;;;;;;;10.17;74.15;100388.69;6347261;28;20050;-59
2021/06/02 03:48:16;;;;;;;7.53;4.35;;;;;;;10.24;73.33;100381.38;6348542;28;20477;-59
2021/06/02 03:51:25;;;;;;;9.55;4.50;;;;;;;10.30;73.51;100393.28;6348341;28;20044;-59
2021/06/02 03:54:45;;;;;;;8.40;3.70;;;;;;;10.28;73.03;100395.94;6347164;28;20047;-59
2021/06/02 03:57:55;;;;;;;7.05;3.58;;;;;;;10.37;73.30;100405.03;6348136;28;20040;-58
2021/06/02 04:01:47;;;;;;;7.57;3.60;;;;;;;10.49;74.13;100394.78;6347016;28;20047;-59
2021/06/02 04:05:21;;;;;;;15.65;3.25;;;;;;;10.55;74.88;100404.03;6335104;28;20067;-57
2021/06/02 04:08:50;;;;;;;3.53;3.15;;;;;;;10.66;72.79;100393.81;6347780;28;20517;-57
2021/06/02 04:12:39;;;;;;;9.15;3.13;;;;;;;10.77;73.15;100400.22;6347755;28;20130;-57
2021/06/02 04:15:47;;;;;;;7.13;3.30;;;;;;;10.85;71.37;100401.50;6338699;28;20047;-57
2021/06/02 04:18:48;;;;;;;4.47;2.72;;;;;;;10.94;69.32;100404.50;6346367;28;20059;-57
2021/06/02 04:21:49;;;;;;;7.60;2.75;;;;;;;11.03;69.83;100417.84;6347611;28;20062;-57
2021/06/02 04:24:51;;;;;;;9.18;2.83;;;;;;;11.11;69.85;100413.97;6346405;28;20486;-57
2021/06/02 04:27:53;;;;;;;4.75;2.92;;;;;;;11.23;69.93;100418.50;6346268;28;20055;-57
2021/06/02 04:31:05;;;;;;;4.70;2.83;;;;;;;11.28;68.68;100411.22;6346225;28;20043;-57
2021/06/02 04:34:06;;;;;;;9.10;2.88;;;;;;;11.37;67.58;100425.53;6346944;28;20039;-57
2021/06/02 04:37:08;;;;;;;7.10;2.80;;;;;;;11.42;66.45;100420.88;6347495;28;20036;-57
2021/06/02 04:40:10;;;;;;;10.13;2.90;;;;;;;11.49;66.72;100425.66;6347083;28;20040;-59
2021/06/02 04:43:13;;;;;;;4.77;2.67;;;;;;;11.55;67.34;100432.31;6347132;28;20043;-59
2021/06/02 04:46:14;;;;;;;5.28;2.83;;;;;;;11.65;66.73;100435.19;6347258;28;20036;-59
2021/06/02 04:49:16;;;;;;;4.55;2.55;;;;;;;11.73;65.97;100438.19;6347147;28;20047;-59
2021/06/02 04:53:07;;;;;;;4.25;2.65;;;;;;;11.81;65.98;100430.72;6346870;28;20043;-59
2021/06/02 04:56:50;;;;;;;6.80;2.72;;;;;;;11.98;65.70;100439.34;6346773;28;20060;-59
2021/06/02 05:00:09;;;;;;;;;;;;;;;12.08;64.59;100440.47;6338498;28;20132;-59
2021/06/02 05:03:22;;;;;;;5.18;2.88;;;;;;;12.18;64.17;100436.38;6345712;28;19931;-59
2021/06/02 05:07:00;;;;;;;6.53;2.70;;;;;;;12.28;64.07;100447.13;6346808;28;20051;-59
2021/06/02 05:10:38;;;;;;;8.13;3.25;;;;;;;12.42;63.21;100449.72;6346394;28;20482;-59
2021/06/02 05:13:47;;;;;;;3.67;2.55;;;;;;;12.55;61.79;100443.72;6346756;28;20046;-59
2021/06/02 05:17:24;;;;;;;6.35;2.40;;;;;;;12.64;63.62;100451.84;6346516;28;20512;-59
2021/06/02 05:24:01;;;;;;;13.17;2.40;;;;;;;12.87;61.04;100450.34;6346356;28;20039;-59
2021/06/02 05:27:33;;;;;;;7.53;2.33;;;;;;;13.00;60.93;100450.41;6346443;28;20036;-59
2021/06/02 05:31:01;;;;;;;4.20;2.20;;;;;;;13.15;61.29;100459.03;6345360;28;20134;-58
2021/06/02 05:34:36;;;;;;;7.53;2.13;;;;;;;13.26;58.72;100455.72;6346097;28;20447;-59
2021/06/02 05:37:49;;;;;;;4.00;2.35;;;;;;;13.39;58.70;100459.25;6346357;28;20052;-59
2021/06/02 05:41:05;;;;;;;7.03;2.45;;;;;;;13.50;57.78;100459.34;6344858;28;20051;-59
2021/06/02 05:44:11;;;;;;;3.75;2.30;;;;;;;13.62;57.45;100462.13;6347228;28;20054;-59
2021/06/02 05:47:34;;;;;;;4.30;2.20;;;;;;;13.71;58.49;100466.72;6351342;28;20126;-59
2021/06/02 05:50:59;;;;;;;3.50;2.17;;;;;;;13.85;57.62;100457.94;6352134;28;20050;-59
2021/06/02 05:54:03;;;;;;;4.10;2.30;;;;;;;13.96;57.63;100460.66;6352266;28;20043;-59
2021/06/02 05:57:39;;;;;;;4.70;2.28;;;;;;;14.08;56.45;100462.44;6351870;28;20046;-59
2021/06/02 06:01:17;;;;;;;6.78;2.20;;;;;;;14.20;54.09;100468.59;6351769;28;20067;-59
2021/06/02 06:04:49;;;;;;;7.68;2.08;;;;;;;14.28;54.90;100465.47;6333243;28;20132;-57
2021/06/02 06:08:08;;;;;;;6.80;2.20;;;;;;;14.36;54.16;100470.19;6351413;28;20135;-57
2021/06/02 06:11:24;;;;;;;3.60;1.95;;;;;;;14.47;53.55;100473.69;6351792;28;20280;-57
2021/06/02 06:14:41;;;;;;;5.80;2.20;;;;;;;14.56;52.99;100467.03;6351600;28;20063;-57
2021/06/02 06:18:00;;;;;;;6.28;2.00;;;;;;;14.67;52.43;100480.22;6351526;28;20070;-57
2021/06/02 06:21:10;;;;;;;4.22;2.03;;;;;;;14.78;53.41;100484.69;6351308;28;20386;-57
2021/06/02 06:24:18;;;;;;;5.95;1.98;;;;;;;14.88;52.16;100477.00;6351148;28;20482;-57
2021/06/02 06:27:38;;;;;;;6.28;2.30;;;;;;;14.99;53.27;100473.56;6351417;28;20051;-57
2021/06/02 06:30:41;;;;;;;2.92;1.88;;;;;;;15.08;51.73;100472.91;6351030;28;20075;-58
2021/06/02 06:33:43;;;;;;;5.13;1.90;;;;;;;15.20;51.84;100479.06;6349655;28;20047;-57
2021/06/02 06:36:46;;;;;;;9.05;1.95;;;;;;;15.30;49.24;100475.66;6349612;28;20039;-58
2021/06/02 06:39:56;;;;;;;5.55;2.15;;;;;;;15.43;51.13;100472.94;6350941;28;20048;-58
2021/06/02 06:42:58;;;;;;;4.03;1.77;;;;;;;15.55;49.93;100475.63;6350736;28;20440;-57
2021/06/02 06:46:01;;;;;;;4.38;1.88;;;;;;;15.69;50.14;100476.25;6350811;28;20063;-58
2021/06/02 06:49:03;;;;;;;3.67;1.77;;;;;;;15.78;49.29;100479.16;6350346;28;20507;-58
2021/06/02 06:52:04;;;;;;;;;;;;;;;15.81;47.95;100479.75;6350698;28;20346;-58
2021/06/02 06:55:07;;;;;;;4.15;1.95;;;;;;;15.91;49.03;100474.63;6350188;28;20411;-58
2021/06/02 06:58:09;;;;;;;7.38;1.90;;;;;;;16.03;49.40;100471.06;6350716;28;20039;-57
2021/06/02 07:01:14;;;;;;;6.00;2.05;;;;;;;16.10;50.00;100474.03;6349054;28;20083;-57
2021/06/02 07:04:15;;;;;;;2.63;1.70;;;;;;;16.11;47.65;100473.94;6349637;28;20488;-57
2021/06/02 07:07:16;;;;;;;3.65;1.85;;;;;;;16.18;49.27;100478.72;6349534;28;20043;-56
2021/06/02 07:10:20;;;;;;;2.92;1.88;;;;;;;16.23;46.96;100469.50;6349074;28;20035;-57
2021/06/02 07:13:24;;;;;;;4.97;1.80;;;;;;;16.29;45.09;100469.03;6350034;28;20051;-57
2021/06/02 07:16:25;;;;;;;2.85;1.88;;;;;;;16.42;47.24;100460.16;6350215;28;20039;-57
2021/06/02 07:19:27;;;;;;;9.88;1.95;;;;;;;16.47;45.82;100465.88;6349020;28;20535;-58
2021/06/02 07:22:30;;;;;;;2.83;1.58;;;;;;;16.53;44.97;100457.50;6348747;28;20043;-58
2021/06/02 07:25:32;;;;;;;;;;;;;;;16.60;46.55;100456.06;6350379;28;20086;-57
2021/06/02 07:28:39;;;;;;;5.32;1.65;;;;;;;16.75;43.45;100461.06;6349961;28;19965;-57
2021/06/02 07:31:40;;;;;;;3.78;1.67;;;;;;;16.83;44.90;100461.31;6349614;28;20039;-57
2021/06/02 07:34:41;;;;;;;10.52;1.88;;;;;;;16.85;41.80;100465.50;6349491;28;20046;-58
2021/06/02 07:37:42;;;;;;;5.55;1.67;;;;;;;16.94;42.14;100471.00;6348596;28;20482;-57
2021/06/02 07:40:43;;;;;;;5.40;1.30;;;;;;;17.03;42.18;100468.44;6349592;28;20054;-58
2021/06/02 07:43:44;;;;;;;3.47;1.40;;;;;;;17.05;40.91;100463.06;6348211;28;20048;-58
2021/06/02 07:46:45;;;;;;;4.20;1.60;;;;;;;17.15;42.79;100468.38;6349366;28;20046;-58
2021/06/02 07:49:45;;;;;;;4.10;1.80;;;;;;;17.21;42.28;100474.00;6349300;28;20465;-58
2021/06/02 07:52:46;;;;;;;3.03;1.58;;;;;;;17.25;41.06;100464.88;6348096;28;20062;-58
2021/06/02 07:55:47;;;;;;;3.28;1.55;;;;;;;17.30;41.46;100475.06;6348069;28;20081;-58
2021/06/02 07:58:49;;;;;;;3.75;1.38;;;;;;;17.38;41.15;100464.72;6349088;28;20423;-58
2021/06/02 08:01:49;;;;;;;2.85;1.50;;;;;;;17.49;43.02;100472.56;6349129;28;20047;-58
2021/06/02 08:04:51;;;;;;;3.80;1.45;;;;;;;17.45;39.63;100467.66;6347733;28;20086;-58
2021/06/02 08:07:52;;;;;;;7.28;1.52;;;;;;;17.61;43.00;100468.06;6348021;28;20052;-58
2021/06/02 08:10:53;;;;;;;5.45;1.50;;;;;;;17.69;42.03;100462.97;6348935;28;20048;-58
2021/06/02 08:13:54;;;;;;;3.95;1.55;;;;;;;17.81;41.20;100470.81;6348633;28;20039;-58
2021/06/02 08:16:55;;;;;;;5.95;1.55;;;;;;;17.95;39.96;100477.59;6347331;28;20036;-57
2021/06/02 08:19:56;;;;;;;2.83;1.38;;;;;;;17.91;37.77;100474.38;6348686;28;20035;-58
2021/06/02 08:22:57;;;;;;;3.10;1.67;;;;;;;18.01;39.16;100463.88;6313380;28;20107;-58
2021/06/02 08:25:58;;;;;;;3.22;1.55;;;;;;;18.01;40.11;100464.69;6348484;28;20055;-57
2021/06/02 08:28:58;;;;;;;4.47;1.98;;;;;;;18.02;40.47;100462.91;6348346;28;20153;-57
2021/06/02 08:31:59;;;;;;;5.72;1.48;;;;;;;18.07;39.72;100456.25;6348464;28;20119;-57
2021/06/02 08:35:00;;;;;;;2.70;1.40;;;;;;;18.06;37.57;100457.22;6330081;28;20059;-58
2021/06/02 08:38:02;;;;;;;6.75;1.70;;;;;;;18.16;39.75;100456.41;6346903;28;20066;-58
2021/06/02 08:41:06;;;;;;;4.70;1.40;;;;;;;18.23;38.41;100460.22;6330008;28;20046;-59
2021/06/02 08:44:08;;;;;;;5.57;1.75;;;;;;;18.06;38.27;100451.94;6346760;28;20421;-58
2021/06/02 08:47:09;;;;;;;8.65;1.50;;;;;;;18.06;38.38;100451.94;6347180;28;20122;-60
2021/06/02 08:50:13;;;;;;;5.70;1.40;;;;;;;17.99;38.14;100458.72;6345917;28;20081;-59
2021/06/02 08:53:18;;;;;;;2.75;1.40;;;;;;;18.11;37.97;100462.09;6345880;28;20415;-60
2021/06/02 08:56:19;;;;;;;4.95;1.58;;;;;;;18.22;38.31;100462.03;6312421;28;20105;-59
2021/06/02 08:59:21;;;;;;;4.90;1.40;;;;;;;18.28;38.20;100466.78;6346492;28;20048;-59
2021/06/02 09:02:21;;;;;;;8.60;1.93;;;;;;;18.32;35.27;100460.25;6346687;28;20059;-59
2021/06/02 09:05:26;;;;;;;2.13;1.52;;;;;;;18.38;37.67;100458.03;6345804;28;20047;-59
2021/06/02 09:08:27;;;;;;;1.95;1.50;;;;;;;18.35;35.19;100458.31;6345178;28;20443;-58
2021/06/02 09:11:28;;;;;;;5.28;1.40;;;;;;;18.56;35.42;100456.41;6345834;28;20058;-57
2021/06/02 09:14:38;;;;;;;3.90;1.63;;;;;;;18.59;35.49;100466.72;6347225;28;20442;-57
2021/06/02 09:17:52;;;;;;;3.05;1.50;;;;;;;18.59;36.00;100450.03;6346844;28;20043;-57
2021/06/02 09:20:56;;;;;;;2.78;1.67;;;;;;;18.69;35.39;100443.78;6346800;28;20450;-57
2021/06/02 09:23:58;;;;;;;3.83;1.80;;;;;;;18.92;34.06;100435.63;6346253;28;20040;-58
2021/06/02 09:26:59;;;;;;;1.30;1.20;;;;;;;19.25;35.61;100454.72;6347018;28;20036;-58
2021/06/02 09:30:00;;;;;;;5.07;1.67;;;;;;;19.30;35.82;100453.31;6345899;28;20044;-58
2021/06/02 09:33:01;;;;;;;6.88;1.70;;;;;;;19.07;35.04;100446.66;6346965;28;20107;-57
2021/06/02 09:36:11;;;;;;;2.70;1.97;;;;;;;18.84;34.40;100454.00;6345540;28;20055;-58
2021/06/02 09:39:13;;;;;;;6.28;1.33;;;;;;;18.82;34.72;100442.72;6346908;28;20042;-56
2021/06/02 09:42:28;;;;;;;2.47;1.67;;;;;;;18.95;35.91;100455.69;6345935;28;20059;-57
2021/06/02 09:45:29;;;;;;;2.05;1.50;;;;;;;18.81;34.48;100463.03;6345628;28;20047;-56
2021/06/02 09:48:39;;;;;;;2.70;1.35;;;;;;;18.97;35.13;100451.94;6345520;28;20096;-57
2021/06/02 09:51:41;;;;;;;5.65;1.73;;;;;;;19.10;35.22;100438.44;6345549;28;20458;-57
2021/06/02 09:54:43;;;;;;;8.13;1.70;;;;;;;18.84;34.71;100438.13;6347059;28;20048;-57
2021/06/02 09:57:45;;;;;;;3.75;1.55;;;;;;;18.76;36.42;100437.94;6345512;28;20062;-57
2021/06/02 10:00:53;;;;;;;;;;;;;;;18.88;36.18;100443.03;6346120;28;20050;-57
2021/06/02 10:03:55;;;;;;;4.45;1.83;;;;;;;18.94;36.88;100438.97;6346692;28;19926;-57
2021/06/02 10:06:57;;;;;;;2.33;1.48;;;;;;;18.99;35.98;100439.41;6328870;28;20043;-57
2021/06/02 10:10:12;;;;;;;3.45;1.70;;;;;;;19.22;36.16;100431.19;6346555;28;20048;-58
2021/06/02 10:13:13;;;;;;;3.45;1.80;;;;;;;19.31;35.35;100432.97;6346430;28;20531;-57
2021/06/02 10:16:32;;;;;;;3.40;1.65;;;;;;;19.30;33.78;100436.63;6346448;28;20039;-58
2021/06/02 10:19:41;;;;;;;4.10;1.50;;;;;;;19.33;33.23;100434.53;6345245;28;20397;-57
2021/06/02 10:22:43;;;;;;;3.80;1.52;;;;;;;19.26;34.56;100443.16;6345180;28;20048;-57
2021/06/02 10:25:45;;;;;;;4.70;1.77;;;;;;;19.26;33.81;100441.34;6346392;28;20047;-57
2021/06/02 10:28:47;;;;;;;5.73;1.63;;;;;;;19.28;34.27;100441.22;6328582;28;20043;-58
2021/06/02 10:31:48;;;;;;;2.67;1.58;;;;;;;19.53;33.90;100440.59;6331879;28;20116;-58
2021/06/02 10:34:54;;;;;;;5.85;1.50;;;;;;;19.66;35.97;100442.13;6349062;28;20048;-58
2021/06/02 10:37:55;;;;;;;9.73;1.80;;;;;;;19.71;34.08;100440.75;6349326;28;20046;-57
2021/06/02 10:40:58;;;;;;;5.28;1.35;;;;;;;19.86;33.75;100441.13;6350710;28;20047;-57
2021/06/02 10:44:11;;;;;;;2.05;1.48;;;;;;;20.04;35.05;100435.06;6349717;28;20048;-56
2021/06/02 10:47:12;;;;;;;4.75;1.58;;;;;;;20.16;34.03;100438.34;6351124;28;20057;-57
2021/06/02 10:50:34;;;;;;;1.83;1.40;;;;;;;20.65;32.67;100433.66;6332599;28;20433;-57
2021/06/02 10:53:36;;;;;;;3.90;1.50;;;;;;;20.75;32.35;100433.59;6349306;28;20047;-57
2021/06/02 10:56:39;;;;;;;8.55;1.77;;;;;;;20.98;31.80;100439.28;6349708;28;20086;-57
2021/06/02 10:59:45;;;;;;;3.08;1.60;;;;;;;21.21;31.71;100445.81;6350691;28;20048;-57
2021/06/02 11:02:46;;;;;;;5.53;1.60;;;;;;;20.95;31.66;100456.34;6349454;28;20052;-57
2021/06/02 11:05:55;;;;;;;2.77;1.47;;;;;;;20.63;31.54;100451.53;6350400;28;20058;-58
2021/06/02 11:08:56;;;;;;;4.20;1.77;;;;;;;20.61;30.82;100449.03;6349081;28;20501;-57
2021/06/02 11:12:04;;;;;;;5.17;1.60;;;;;;;21.08;31.00;100451.47;6350209;28;20044;-57
2021/06/02 11:15:21;;;;;;;4.55;1.95;;;;;;;21.18;30.67;100448.75;6349048;28;20051;-58
2021/06/02 11:18:22;;;;;;;2.22;1.60;;;;;;;21.45;31.21;100450.47;6348981;28;20047;-57
2021/06/02 11:21:23;;;;;;;7.53;2.20;;;;;;;21.61;30.63;100443.63;6350219;28;20485;-57
2021/06/02 11:27:35;;;;;;;5.68;1.90;;;;;;;21.74;28.49;100430.75;6349107;28;20043;-57
2021/06/02 11:30:36;;;;;;;1.85;1.60;;;;;;;21.76;29.43;100439.41;6347798;28;20043;-57
2021/06/02 11:33:36;;;;;;;5.43;1.70;;;;;;;21.65;29.04;100439.69;6349061;28;20262;-58
2021/06/02 11:36:58;;;;;;;6.43;2.40;;;;;;;21.24;30.01;100442.84;6348836;28;20118;-57
2021/06/02 11:40:05;;;;;;;2.92;2.25;;;;;;;20.89;29.42;100436.56;6348814;28;20097;-57
2021/06/02 11:43:05;;;;;;;6.47;2.10;;;;;;;21.02;30.72;100445.94;6347488;28;20142;-57
2021/06/02 11:46:06;;;;;;;4.80;2.10;;;;;;;21.27;29.46;100453.16;6347500;28;20047;-57
2021/06/02 11:49:23;;;;;;;3.90;2.40;;;;;;;21.73;28.30;100445.03;6348452;28;20052;-58
2021/06/02 11:52:24;;;;;;;5.57;2.15;;;;;;;21.83;30.77;100443.13;6348342;28;20059;-57
2021/06/02 11:55:26;;;;;;;7.53;2.30;;;;;;;22.49;29.68;100433.63;6348210;28;20043;-57
2021/06/02 11:58:27;;;;;;;5.38;2.15;;;;;;;22.74;27.40;100441.66;6348410;28;20044;-58
2021/06/02 12:01:28;;;;;;;6.35;2.28;;;;;;;23.01;27.76;100439.72;6348239;28;20051;-57
2021/06/02 12:04:28;;;;;;;6.70;2.50;;;;;;;22.90;28.48;100443.53;6347072;28;20055;-57
2021/06/02 12:07:29;;;;;;;8.63;2.57;;;;;;;22.88;28.04;100435.69;6329995;28;20043;-58
2021/06/02 12:10:36;;;;;;;9.43;2.23;;;;;;;22.98;27.33;100440.03;6346830;28;20134;-58
2021/06/02 12:13:40;;;;;;;3.80;2.40;;;;;;;22.47;26.50;100443.59;6347878;28;20433;-58
2021/06/02 12:16:41;;;;;;;3.33;2.10;;;;;;;22.31;26.64;100441.69;6347741;28;20502;-57
2021/06/02 12:19:42;;;;;;;4.07;2.13;;;;;;;22.18;28.72;100454.59;6346825;28;20058;-56
2021/06/02 12:22:43;;;;;;;6.67;2.80;;;;;;;21.98;29.50;100458.47;6347697;28;20052;-57
2021/06/02 12:25:44;;;;;;;3.72;1.77;;;;;;;21.55;29.69;100455.72;6347646;28;20051;-57
2021/06/02 12:28:46;;;;;;;5.07;2.07;;;;;;;21.04;30.32;100454.59;6347567;28;20048;-57
2021/06/02 12:31:48;;;;;;;8.35;2.22;;;;;;;20.74;30.94;100461.94;6348297;28;20050;-57
2021/06/02 12:34:49;;;;;;;4.32;2.20;;;;;;;20.63;31.97;100462.13;6346818;28;20068;-57
2021/06/02 12:38:05;;;;;;;8.63;2.27;;;;;;;20.66;32.30;100465.31;6347825;28;20047;-58
2021/06/02 12:41:10;;;;;;;6.20;2.30;;;;;;;20.77;31.47;100456.31;6348132;28;20455;-58
2021/06/02 12:44:11;;;;;;;5.93;2.17;;;;;;;21.14;29.86;100453.53;6348041;28;20052;-58
2021/06/02 12:47:15;;;;;;;6.30;2.10;;;;;;;21.85;30.39;100453.59;6347758;28;20043;-58
2021/06/02 12:50:35;;;;;;;2.72;1.90;;;;;;;22.37;29.46;100453.53;6346635;28;20093;-58
2021/06/02 12:53:38;;;;;;;4.32;1.98;;;;;;;22.52;27.80;100443.09;6347492;28;20057;-58
2021/06/02 12:56:40;;;;;;;4.65;1.88;;;;;;;22.78;27.66;100444.84;6346727;28;20130;-58
2021/06/02 12:59:42;;;;;;;7.30;1.73;;;;;;;22.31;30.59;100451.50;6347646;28;20044;-59
2021/06/02 13:02:42;;;;;;;4.63;1.87;;;;;;;22.26;28.25;100451.16;6346411;28;20421;-58
2021/06/02 13:05:44;;;;;;;2.67;1.80;;;;;;;22.77;28.19;100443.16;6346324;28;20067;-58
2021/06/02 13:08:46;;;;;;;;;;;;;;;22.88;27.66;100449.00;6347749;28;20039;-58
2021/06/02 13:11:47;;;;;;;2.45;1.60;;;;;;;22.66;27.91;100452.28;6347074;28;19924;-58
2021/06/02 13:14:48;;;;;;;4.00;1.85;;;;;;;22.46;29.04;100457.88;6346849;28;20131;-58
2021/06/02 13:17:49;;;;;;;3.63;1.70;;;;;;;22.37;28.64;100466.81;6347424;28;20477;-58
2021/06/02 13:20:50;;;;;;;8.17;1.90;;;;;;;22.44;28.08;100467.00;6347180;28;20283;-59
2021/06/02 13:23:52;;;;;;;9.07;1.92;;;;;;;22.86;28.34;100455.50;6347175;28;20051;-58
2021/06/02 13:26:56;;;;;;;9.47;1.80;;;;;;;23.03;27.14;100459.88;6347161;28;20093;-58
2021/06/02 13:30:08;;;;;;;4.03;1.92;;;;;;;23.06;27.48;100456.88;6347041;28;20477;-58
2021/06/02 13:33:12;;;;;;;3.58;2.00;;;;;;;22.91;27.22;100451.31;6347164;28;20073;-58
2021/06/02 13:36:22;;;;;;;3.70;2.00;;;;;;;22.78;26.49;100455.47;6347098;28;20451;-58
2021/06/02 13:39:23;;;;;;;6.40;1.75;;;;;;;22.47;27.94;100464.03;6346889;28;20136;-58
2021/06/02 13:42:23;;;;;;;5.00;1.80;;;;;;;22.58;28.26;100452.25;6347081;28;20385;-58
2021/06/02 13:45:39;;;;;;;4.33;1.90;;;;;;;22.56;29.70;100456.91;6345863;28;20052;-58
2021/06/02 13:48:48;;;;;;;5.20;1.67;;;;;;;22.54;27.83;100463.22;6346857;28;20047;-58
2021/06/02 13:51:52;;;;;;;2.47;1.70;;;;;;;22.40;28.56;100458.50;6346355;28;20044;-59
2021/06/02 13:54:56;;;;;;;3.25;1.67;;;;;;;22.17;27.91;100460.88;6346584;28;20048;-58
2021/06/02 13:57:57;;;;;;;3.78;1.65;;;;;;;22.28;28.07;100462.47;6346539;28;20102;-58
2021/06/02 14:00:58;;;;;;;3.57;1.70;;;;;;;22.26;27.58;100467.13;6328977;28;20051;-59
2021/06/02 14:03:59;;;;;;;4.20;1.70;;;;;;;22.37;28.03;100453.53;6345546;28;20102;-58
2021/06/02 14:07:02;;;;;;;4.87;1.70;;;;;;;22.39;27.32;100462.19;6351049;28;20046;-58
2021/06/02 14:10:04;;;;;;;4.20;2.00;;;;;;;22.09;28.99;100463.50;6351649;28;20478;-59
2021/06/02 14:13:05;;;;;;;3.08;1.70;;;;;;;21.87;28.68;100457.75;6351654;27;20055;-58
2021/06/02 14:16:06;;;;;;;3.87;2.00;;;;;;;21.56;30.19;100461.84;6350259;28;20050;-58
2021/06/02 14:19:08;;;;;;;3.50;1.70;;;;;;;21.40;30.00;100468.69;6351534;28;20066;-58
2021/06/02 14:22:09;;;;;;;3.10;1.73;;;;;;;21.04;30.12;100468.69;6351594;28;20035;-58
2021/06/02 14:25:16;;;;;;;5.18;1.77;;;;;;;21.09;31.44;100470.91;6350366;28;20067;-58
2021/06/02 14:28:17;;;;;;;3.63;1.90;;;;;;;20.92;30.95;100469.91;6351475;28;20039;-60
2021/06/02 14:31:19;;;;;;;6.30;2.03;;;;;;;20.95;31.68;100476.72;6351184;28;20141;-59
2021/06/02 14:34:20;;;;;;;12.25;2.03;;;;;;;20.95;31.67;100469.59;6351098;28;20057;-58
2021/06/02 14:37:20;;;;;;;5.33;1.83;;;;;;;20.79;31.80;100472.09;6349959;28;20039;-58
2021/06/02 14:40:21;;;;;;;4.37;2.00;;;;;;;20.84;33.05;100478.63;6332883;28;20035;-58
2021/06/02 14:43:23;;;;;;;11.02;2.20;;;;;;;20.93;31.44;100472.41;6351129;28;20082;-58